Main page
METAR-TAF:

METAR-TAF

Airports :

St. Charles County Airport (Smart Field)

Saint Charles, Missouri, United States

latitude: 38-55-50N, longitude: 090-25-57W, elevation: 436 ft

Current weather observation

The report was made 25 minutes ago, at 12:54 UTC
Wind 6 mph from the Southeast
Temperature 66°F
Humidity 83%
Pressure 29.91 in. Hg
Visibility: 10 miles
Scattered clouds at a height of 6000 ft

METAR: KSET 231254Z AUTO 13005KT 10SM SCT060 19/16 A2991 RMK AO2 SLP125 T01940161

Time: 08:19 (13:19 UTC)


TAF: missing

Weather observations and forecasts of more than 4000 airports (METAR and TAF reports).

The available stations are represented by yellow and red dots on the map.

Hover mouse over dot to see the name of the station.

Then click to see weather observations and forecasts.

To change the map : click on the green buttons with a black cross to zoom in, on the green button with a dash to zoom out, or on the green arrows for adjacent maps.


METAR-TAF: